createdAt,value
2018-09-26T00:01:00.256Z,4.95
2018-09-26T00:11:58.931Z,4.61
2018-09-26T00:22:59.739Z,4.20
2018-09-26T00:34:03.585Z,4.12
2018-09-26T00:45:07.237Z,4.02
2018-09-26T00:56:03.756Z,4.05
2018-09-26T01:07:01.914Z,3.82
2018-09-26T01:18:05.291Z,3.74
2018-09-26T01:29:07.746Z,3.54
2018-09-26T01:40:08.299Z,3.46
2018-09-26T01:51:10.558Z,3.53
2018-09-26T02:02:10.750Z,3.27
2018-09-26T02:13:06.819Z,2.99
2018-09-26T02:24:08.668Z,2.96
2018-09-26T02:35:05.863Z,3.06
2018-09-26T02:46:07.748Z,3.03
2018-09-26T02:57:09.969Z,2.98
2018-09-26T03:08:11.259Z,2.80
2018-09-26T03:19:11.820Z,2.52
2018-09-26T03:30:06.365Z,2.60
2018-09-26T03:41:05.762Z,2.50
2018-09-26T03:52:07.630Z,2.62
2018-09-26T04:03:09.816Z,2.53
2018-09-26T04:14:07.682Z,2.55
2018-09-26T04:25:10.474Z,2.31
2018-09-26T04:36:11.496Z,2.49
2018-09-26T04:47:14.496Z,2.56
2018-09-26T04:58:10.464Z,2.60
2018-09-26T05:09:10.926Z,2.63
2018-09-26T05:20:13.493Z,2.62
2018-09-26T05:31:14.835Z,2.73
2018-09-26T05:42:17.623Z,2.96
2018-09-26T05:53:20.214Z,3.50
2018-09-26T06:04:20.108Z,3.80
2018-09-26T06:15:22.806Z,4.32
2018-09-26T06:26:26.600Z,4.96
2018-09-26T06:37:29.925Z,5.53
2018-09-26T06:48:33.140Z,5.99
2018-09-26T06:59:36.516Z,7.08
2018-09-26T07:10:39.935Z,7.55
2018-09-26T07:21:38.564Z,8.07
2018-09-26T07:32:42.016Z,8.69
2018-09-26T07:43:44.486Z,9.03
2018-09-26T07:54:47.795Z,9.65
2018-09-26T08:05:50.160Z,10.06
2018-09-26T08:16:52.146Z,10.67
2018-09-26T08:27:54.936Z,10.87
2018-09-26T08:38:56.189Z,11.28
2018-09-26T08:49:59.213Z,11.50
2018-09-26T09:01:01.024Z,11.95
2018-09-26T09:12:03.627Z,12.02
2018-09-26T09:23:06.095Z,12.39
2018-09-26T09:34:08.603Z,12.79
2018-09-26T09:45:09.633Z,12.49
2018-09-26T09:56:12.498Z,13.55
2018-09-26T10:07:14.505Z,14.11
2018-09-26T10:18:15.528Z,14.17
2018-09-26T10:29:16.774Z,14.50
2018-09-26T10:40:18.641Z,14.57
2018-09-26T10:51:19.138Z,15.39
2018-09-26T11:02:17.510Z,16.77
2018-09-26T11:13:05.679Z,15.92
2018-09-26T11:24:03.768Z,15.92
2018-09-26T11:34:55.754Z,16.47
2018-09-26T11:45:57.027Z,16.55
2018-09-26T11:56:38.469Z,16.65
2018-09-26T12:07:34.817Z,17.02
2018-09-26T12:18:34.643Z,16.71
2018-09-26T12:29:34.252Z,16.98
2018-09-26T12:40:34.592Z,17.17
2018-09-26T12:51:36.196Z,18.09
2018-09-26T13:02:36.619Z,17.64
2018-09-26T13:13:38.802Z,17.81
2018-09-26T13:24:39.512Z,18.42
2018-09-26T13:35:31.561Z,19.54
2018-09-26T13:46:25.882Z,19.68
2018-09-26T13:57:25.807Z,18.58
2018-09-26T14:08:15.647Z,17.46
2018-09-26T14:19:09.308Z,16.40
2018-09-26T14:30:09.104Z,16.04
2018-09-26T14:41:09.151Z,16.04
2018-09-26T14:52:10.666Z,15.94
2018-09-26T15:03:09.665Z,15.70
2018-09-26T15:14:11.360Z,15.48
2018-09-26T15:25:10.510Z,15.45
2018-09-26T15:36:11.787Z,15.43
2018-09-26T15:47:11.410Z,15.28
2018-09-26T15:58:08.696Z,14.42
2018-09-26T16:09:10.016Z,14.09
2018-09-26T16:20:06.295Z,12.73
2018-09-26T16:31:00.589Z,11.93
2018-09-26T16:41:56.068Z,11.46
2018-09-26T16:52:55.607Z,10.93
2018-09-26T17:03:54.546Z,10.55
2018-09-26T17:14:53.265Z,10.31
2018-09-26T17:25:51.424Z,10.19
2018-09-26T17:36:45.745Z,9.72
2018-09-26T17:47:43.834Z,9.28
2018-09-26T17:58:44.168Z,9.02
2018-09-26T18:09:44.002Z,8.70
2018-09-26T18:20:43.626Z,8.33
2018-09-26T18:31:43.727Z,8.37
2018-09-26T18:42:43.436Z,8.17
2018-09-26T18:53:43.708Z,8.03
2018-09-26T19:04:39.139Z,8.06
2018-09-26T19:15:39.205Z,7.81
2018-09-26T19:26:34.827Z,7.62
2018-09-26T19:37:32.217Z,7.85
2018-09-26T19:48:32.199Z,7.73
2018-09-26T19:59:32.526Z,7.52
2018-09-26T20:10:28.690Z,7.68
2018-09-26T20:21:27.015Z,7.47
2018-09-26T20:32:27.798Z,7.31
2018-09-26T20:43:29.749Z,7.42
2018-09-26T20:54:31.663Z,7.38
2018-09-26T21:05:34.415Z,7.47
2018-09-26T21:16:36.051Z,7.27
2018-09-26T21:27:37.276Z,7.19
2018-09-26T21:38:38.181Z,7.06
2018-09-26T21:49:39.277Z,6.93
2018-09-26T22:00:40.809Z,6.70
2018-09-26T22:11:43.191Z,6.48
2018-09-26T22:22:44.036Z,6.55
2018-09-26T22:33:46.361Z,6.37
2018-09-26T22:44:48.845Z,6.27
2018-09-26T22:55:50.213Z,6.22
2018-09-26T23:06:51.835Z,6.00
2018-09-26T23:17:50.226Z,5.96
2018-09-26T23:28:51.306Z,5.88
2018-09-26T23:39:49.867Z,5.81
2018-09-26T23:50:52.623Z,5.47
